Aérodrome :
LOGIN :

S'inscrire | Disclaimer

   EN    FR    IT 

 










Légende :    VFR   VFR Marginal   IFR   IFR Intensif   IFR Très Intensif
Visi : 
Plafond : 
>= 8 km
>= 3000ft
5 à 8 km
1000 à 3000 ft
1500m à 5 km
500 à 1000 ft
800 à 1500m
200 à 500 ft
< 800m
< 200 ft
Symboles :   Orages  Brouillard  Fortes neiges  Fortes précipitations  Vent > 20 kt
SIGMETs :   Divers  Orages  Givrage  Turbulence  Onde Orograph.  Cendres Volcan.







- Altitude de l'aérodrome : 183 ft
- Code IATA : HAJ


EDDV - Hanover/Langenhagen Int.

DERNIER METAR :
  • 231620Z 27011KT 6000 -RADZ BKN008 11/10 Q1016 TEMPO BKN013

METARs EXPIRÉS :
  • 231550Z 27010KT 230V290 7000 -RADZ BKN007 11/10 Q1016 TEMPO BKN013
  • 231520Z 25009KT 220V280 9999 -RADZ BKN007 11/10 Q1015 TEMPO BKN013
  • 231450Z 24011KT 210V270 9000 -RADZ BKN008 11/09 Q1015 RERA NOSIG
  • 231420Z 24012KT 210V270 5000 -RADZ BKN010 10/09 Q1015 RERA TEMPO 4500
  • 231350Z 24012KT 200V270 6000 RA BKN012 10/09 Q1015 TEMPO 4500

TAF AMD TAF EDDV
Valide du 23 à 15h jusqu'au 24 à 12h UTC


231501Z 2315/2412 24012KT 9999 BKN020
TEMPO 2315/2317 4000 -RADZ BKN008
BECMG 2316/2319 29007KT
PROB30
TEMPO 2320/2408 4000 BR BKN007
BECMG 2400/2403 20005KT
Pas de NOTAMs connus pour ce terrain.



MET'MAP, la Météo Aéronautique d'un coup d'oeil ! - Copyright ORBIFLY Décembre 2007 - Disclaimer

ORBIFLY MET'MAP TEAM :

Programmation & Développement : Alexandra Zaïnal
Conception & Développement : Baudouin d'Aumeries
Co-Programmation & Développement : Marc-Olivier Méhu
Soutien technique & logistique : Manuel Goepfert

Contact : metmap@orbifly.com




SOURCES & CREDITS :

   NOAA